sensor_id;sensor_type;location;lat;lon;timestamp;P1;durP1;ratioP1;P2;durP2;ratioP2
65581;SDS011;52231;40.090;18.348;2023-12-22T00:02:09;81.90;;;47.38;;
65581;SDS011;52231;40.090;18.348;2023-12-22T00:04:37;84.43;;;47.00;;
65581;SDS011;52231;40.090;18.348;2023-12-22T00:07:05;79.03;;;43.00;;
65581;SDS011;52231;40.090;18.348;2023-12-22T00:09:33;81.68;;;44.70;;
65581;SDS011;52231;40.090;18.348;2023-12-22T00:12:02;79.43;;;42.80;;
65581;SDS011;52231;40.090;18.348;2023-12-22T00:14:30;83.03;;;44.28;;
65581;SDS011;52231;40.090;18.348;2023-12-22T00:16:58;83.97;;;44.22;;
65581;SDS011;52231;40.090;18.348;2023-12-22T00:19:26;75.93;;;41.50;;
65581;SDS011;52231;40.090;18.348;2023-12-22T00:21:55;80.97;;;41.13;;
65581;SDS011;52231;40.090;18.348;2023-12-22T00:24:24;76.00;;;40.70;;
65581;SDS011;52231;40.090;18.348;2023-12-22T00:26:52;71.88;;;38.47;;
65581;SDS011;52231;40.090;18.348;2023-12-22T00:29:20;81.30;;;40.60;;
65581;SDS011;52231;40.090;18.348;2023-12-22T00:31:48;86.75;;;44.72;;
65581;SDS011;52231;40.090;18.348;2023-12-22T00:34:16;84.85;;;42.25;;
65581;SDS011;52231;40.090;18.348;2023-12-22T00:36:46;77.25;;;38.92;;
65581;SDS011;52231;40.090;18.348;2023-12-22T00:39:15;74.95;;;38.72;;
65581;SDS011;52231;40.090;18.348;2023-12-22T00:41:43;76.90;;;39.75;;
65581;SDS011;52231;40.090;18.348;2023-12-22T00:44:11;67.40;;;39.42;;
65581;SDS011;52231;40.090;18.348;2023-12-22T00:46:39;66.95;;;37.92;;
65581;SDS011;52231;40.090;18.348;2023-12-22T00:49:07;67.85;;;34.92;;
65581;SDS011;52231;40.090;18.348;2023-12-22T00:51:35;65.45;;;35.78;;
65581;SDS011;52231;40.090;18.348;2023-12-22T00:54:03;64.97;;;37.72;;
65581;SDS011;52231;40.090;18.348;2023-12-22T00:56:32;66.82;;;37.58;;
65581;SDS011;52231;40.090;18.348;2023-12-22T00:59:00;68.22;;;34.80;;
65581;SDS011;52231;40.090;18.348;2023-12-22T01:01:28;66.65;;;36.22;;
65581;SDS011;52231;40.090;18.348;2023-12-22T01:03:56;63.13;;;33.22;;
65581;SDS011;52231;40.090;18.348;2023-12-22T01:06:25;58.22;;;32.58;;
65581;SDS011;52231;40.090;18.348;2023-12-22T01:08:53;57.63;;;33.10;;
65581;SDS011;52231;40.090;18.348;2023-12-22T01:11:21;59.42;;;32.22;;
65581;SDS011;52231;40.090;18.348;2023-12-22T01:13:49;56.53;;;30.77;;
65581;SDS011;52231;40.090;18.348;2023-12-22T01:16:17;54.33;;;33.60;;
65581;SDS011;52231;40.090;18.348;2023-12-22T01:18:49;54.72;;;31.13;;
65581;SDS011;52231;40.090;18.348;2023-12-22T01:21:18;55.58;;;29.42;;
65581;SDS011;52231;40.090;18.348;2023-12-22T01:23:46;56.42;;;30.02;;
65581;SDS011;52231;40.090;18.348;2023-12-22T01:26:14;53.05;;;29.50;;
65581;SDS011;52231;40.090;18.348;2023-12-22T01:28:42;60.25;;;30.05;;
65581;SDS011;52231;40.090;18.348;2023-12-22T01:31:10;57.80;;;31.60;;
65581;SDS011;52231;40.090;18.348;2023-12-22T01:33:38;53.70;;;30.48;;
65581;SDS011;52231;40.090;18.348;2023-12-22T01:36:06;57.95;;;31.25;;
65581;SDS011;52231;40.090;18.348;2023-12-22T01:38:34;58.40;;;29.27;;
65581;SDS011;52231;40.090;18.348;2023-12-22T01:41:03;59.15;;;30.40;;
65581;SDS011;52231;40.090;18.348;2023-12-22T01:43:31;60.08;;;31.83;;
65581;SDS011;52231;40.090;18.348;2023-12-22T01:46:00;58.78;;;31.98;;
65581;SDS011;52231;40.090;18.348;2023-12-22T01:48:29;55.50;;;31.75;;
65581;SDS011;52231;40.090;18.348;2023-12-22T01:53:26;58.33;;;31.58;;
65581;SDS011;52231;40.090;18.348;2023-12-22T01:55:57;52.70;;;28.85;;
65581;SDS011;52231;40.090;18.348;2023-12-22T01:58:27;56.08;;;30.30;;
65581;SDS011;52231;40.090;18.348;2023-12-22T02:01:05;59.28;;;30.20;;
65581;SDS011;52231;40.090;18.348;2023-12-22T02:03:34;56.45;;;31.40;;
65581;SDS011;52231;40.090;18.348;2023-12-22T02:06:04;54.80;;;29.70;;
65581;SDS011;52231;40.090;18.348;2023-12-22T02:08:33;50.30;;;28.15;;
65581;SDS011;52231;40.090;18.348;2023-12-22T02:11:02;50.78;;;27.38;;
65581;SDS011;52231;40.090;18.348;2023-12-22T02:13:30;52.53;;;28.33;;
65581;SDS011;52231;40.090;18.348;2023-12-22T02:16:01;58.47;;;29.23;;
65581;SDS011;52231;40.090;18.348;2023-12-22T02:18:40;55.25;;;29.67;;
65581;SDS011;52231;40.090;18.348;2023-12-22T02:21:14;51.15;;;27.73;;
65581;SDS011;52231;40.090;18.348;2023-12-22T02:23:42;52.67;;;26.13;;
65581;SDS011;52231;40.090;18.348;2023-12-22T02:26:32;46.55;;;24.38;;
65581;SDS011;52231;40.090;18.348;2023-12-22T02:29:03;46.83;;;23.38;;
65581;SDS011;52231;40.090;18.348;2023-12-22T02:31:35;43.25;;;22.70;;
65581;SDS011;52231;40.090;18.348;2023-12-22T02:34:05;44.83;;;23.75;;
65581;SDS011;52231;40.090;18.348;2023-12-22T02:36:38;44.05;;;23.65;;
65581;SDS011;52231;40.090;18.348;2023-12-22T02:39:09;50.35;;;24.63;;
65581;SDS011;52231;40.090;18.348;2023-12-22T02:41:38;49.55;;;24.75;;
65581;SDS011;52231;40.090;18.348;2023-12-22T02:44:07;51.08;;;24.92;;
65581;SDS011;52231;40.090;18.348;2023-12-22T02:49:03;45.05;;;22.42;;
65581;SDS011;52231;40.090;18.348;2023-12-22T02:51:31;48.97;;;23.17;;
65581;SDS011;52231;40.090;18.348;2023-12-22T02:53:59;48.03;;;22.85;;
65581;SDS011;52231;40.090;18.348;2023-12-22T02:56:27;43.60;;;22.27;;
65581;SDS011;52231;40.090;18.348;2023-12-22T02:58:55;45.97;;;23.42;;
65581;SDS011;52231;40.090;18.348;2023-12-22T03:01:23;43.97;;;21.48;;
65581;SDS011;52231;40.090;18.348;2023-12-22T03:03:51;42.08;;;20.73;;
65581;SDS011;52231;40.090;18.348;2023-12-22T03:06:19;48.10;;;21.00;;
65581;SDS011;52231;40.090;18.348;2023-12-22T03:08:47;40.95;;;20.00;;
65581;SDS011;52231;40.090;18.348;2023-12-22T03:11:15;41.63;;;19.77;;
65581;SDS011;52231;40.090;18.348;2023-12-22T03:13:44;39.35;;;18.80;;
65581;SDS011;52231;40.090;18.348;2023-12-22T03:16:12;41.95;;;18.23;;
65581;SDS011;52231;40.090;18.348;2023-12-22T03:18:41;40.15;;;18.77;;
65581;SDS011;52231;40.090;18.348;2023-12-22T03:21:15;40.00;;;18.65;;
65581;SDS011;52231;40.090;18.348;2023-12-22T03:23:45;39.67;;;18.50;;
65581;SDS011;52231;40.090;18.348;2023-12-22T03:26:14;37.55;;;17.50;;
65581;SDS011;52231;40.090;18.348;2023-12-22T03:28:42;39.15;;;17.30;;
65581;SDS011;52231;40.090;18.348;2023-12-22T03:31:10;38.13;;;18.10;;
65581;SDS011;52231;40.090;18.348;2023-12-22T03:33:38;32.72;;;16.73;;
65581;SDS011;52231;40.090;18.348;2023-12-22T03:36:06;35.78;;;16.63;;
65581;SDS011;52231;40.090;18.348;2023-12-22T03:38:34;36.47;;;17.08;;
65581;SDS011;52231;40.090;18.348;2023-12-22T03:41:03;37.28;;;15.25;;
65581;SDS011;52231;40.090;18.348;2023-12-22T03:43:31;34.40;;;15.30;;
65581;SDS011;52231;40.090;18.348;2023-12-22T03:45:59;34.55;;;14.80;;
65581;SDS011;52231;40.090;18.348;2023-12-22T03:48:27;31.73;;;15.00;;
65581;SDS011;52231;40.090;18.348;2023-12-22T03:50:55;29.10;;;12.55;;
65581;SDS011;52231;40.090;18.348;2023-12-22T03:53:23;27.48;;;11.60;;
65581;SDS011;52231;40.090;18.348;2023-12-22T03:55:52;27.38;;;10.73;;
65581;SDS011;52231;40.090;18.348;2023-12-22T03:58:20;28.95;;;9.70;;
65581;SDS011;52231;40.090;18.348;2023-12-22T04:00:48;22.90;;;9.63;;
65581;SDS011;52231;40.090;18.348;2023-12-22T04:03:16;22.40;;;8.30;;
65581;SDS011;52231;40.090;18.348;2023-12-22T04:05:44;21.25;;;7.38;;
65581;SDS011;52231;40.090;18.348;2023-12-22T04:08:12;23.52;;;7.07;;
65581;SDS011;52231;40.090;18.348;2023-12-22T04:10:40;24.70;;;5.55;;
65581;SDS011;52231;40.090;18.348;2023-12-22T04:13:08;18.73;;;5.28;;
65581;SDS011;52231;40.090;18.348;2023-12-22T04:15:36;20.15;;;4.78;;
65581;SDS011;52231;40.090;18.348;2023-12-22T04:18:05;21.55;;;4.30;;
65581;SDS011;52231;40.090;18.348;2023-12-22T04:20:33;17.85;;;4.03;;
65581;SDS011;52231;40.090;18.348;2023-12-22T04:23:01;20.17;;;3.65;;
65581;SDS011;52231;40.090;18.348;2023-12-22T04:25:29;16.00;;;3.50;;
65581;SDS011;52231;40.090;18.348;2023-12-22T04:27:57;13.23;;;3.40;;
65581;SDS011;52231;40.090;18.348;2023-12-22T04:30:25;18.73;;;3.83;;
65581;SDS011;52231;40.090;18.348;2023-12-22T04:32:56;16.92;;;4.00;;
65581;SDS011;52231;40.090;18.348;2023-12-22T04:35:24;17.15;;;3.85;;
65581;SDS011;52231;40.090;18.348;2023-12-22T04:37:52;16.13;;;3.80;;
65581;SDS011;52231;40.090;18.348;2023-12-22T04:40:21;14.98;;;3.95;;
65581;SDS011;52231;40.090;18.348;2023-12-22T04:42:49;17.60;;;4.15;;
65581;SDS011;52231;40.090;18.348;2023-12-22T04:45:17;20.42;;;4.40;;
65581;SDS011;52231;40.090;18.348;2023-12-22T04:47:45;17.73;;;4.22;;
65581;SDS011;52231;40.090;18.348;2023-12-22T04:50:13;17.15;;;4.35;;
65581;SDS011;52231;40.090;18.348;2023-12-22T04:52:41;19.63;;;4.60;;
65581;SDS011;52231;40.090;18.348;2023-12-22T04:55:09;17.10;;;4.28;;
65581;SDS011;52231;40.090;18.348;2023-12-22T04:57:38;14.93;;;4.25;;
65581;SDS011;52231;40.090;18.348;2023-12-22T05:00:06;22.10;;;6.38;;
65581;SDS011;52231;40.090;18.348;2023-12-22T05:02:34;17.30;;;6.88;;
65581;SDS011;52231;40.090;18.348;2023-12-22T05:05:02;18.13;;;6.13;;
65581;SDS011;52231;40.090;18.348;2023-12-22T05:07:31;15.55;;;5.72;;
65581;SDS011;52231;40.090;18.348;2023-12-22T05:09:59;12.68;;;5.13;;
65581;SDS011;52231;40.090;18.348;2023-12-22T05:12:29;15.48;;;5.22;;
65581;SDS011;52231;40.090;18.348;2023-12-22T05:14:58;16.75;;;5.57;;
65581;SDS011;52231;40.090;18.348;2023-12-22T05:17:26;17.83;;;7.82;;
65581;SDS011;52231;40.090;18.348;2023-12-22T05:19:54;18.73;;;7.22;;
65581;SDS011;52231;40.090;18.348;2023-12-22T05:22:22;20.05;;;7.65;;
65581;SDS011;52231;40.090;18.348;2023-12-22T05:24:50;19.25;;;6.65;;
65581;SDS011;52231;40.090;18.348;2023-12-22T05:27:18;22.95;;;7.10;;
65581;SDS011;52231;40.090;18.348;2023-12-22T05:29:46;16.73;;;6.72;;
65581;SDS011;52231;40.090;18.348;2023-12-22T05:32:14;15.43;;;6.78;;
65581;SDS011;52231;40.090;18.348;2023-12-22T05:34:42;20.20;;;7.72;;
65581;SDS011;52231;40.090;18.348;2023-12-22T05:37:10;15.85;;;7.50;;
65581;SDS011;52231;40.090;18.348;2023-12-22T05:39:39;17.90;;;7.57;;
65581;SDS011;52231;40.090;18.348;2023-12-22T05:42:07;16.52;;;7.20;;
65581;SDS011;52231;40.090;18.348;2023-12-22T05:44:36;17.17;;;8.05;;
65581;SDS011;52231;40.090;18.348;2023-12-22T05:47:06;21.00;;;7.70;;
65581;SDS011;52231;40.090;18.348;2023-12-22T05:49:35;16.40;;;7.68;;
65581;SDS011;52231;40.090;18.348;2023-12-22T05:52:03;22.45;;;10.25;;
65581;SDS011;52231;40.090;18.348;2023-12-22T05:54:31;22.17;;;11.18;;
65581;SDS011;52231;40.090;18.348;2023-12-22T05:57:00;21.00;;;10.13;;
65581;SDS011;52231;40.090;18.348;2023-12-22T05:59:28;18.77;;;8.35;;
65581;SDS011;52231;40.090;18.348;2023-12-22T06:01:56;19.35;;;8.65;;
65581;SDS011;52231;40.090;18.348;2023-12-22T06:04:26;24.67;;;9.82;;
65581;SDS011;52231;40.090;18.348;2023-12-22T06:06:54;26.65;;;11.20;;
65581;SDS011;52231;40.090;18.348;2023-12-22T06:09:22;26.67;;;11.63;;
65581;SDS011;52231;40.090;18.348;2023-12-22T06:11:50;29.60;;;11.13;;
65581;SDS011;52231;40.090;18.348;2023-12-22T06:14:19;24.65;;;9.75;;
65581;SDS011;52231;40.090;18.348;2023-12-22T06:16:47;24.80;;;10.70;;
65581;SDS011;52231;40.090;18.348;2023-12-22T06:19:15;21.58;;;9.20;;
65581;SDS011;52231;40.090;18.348;2023-12-22T06:21:44;23.55;;;9.50;;
65581;SDS011;52231;40.090;18.348;2023-12-22T06:24:12;23.33;;;11.43;;
65581;SDS011;52231;40.090;18.348;2023-12-22T06:26:40;24.00;;;11.43;;
65581;SDS011;52231;40.090;18.348;2023-12-22T06:29:08;21.73;;;10.90;;
65581;SDS011;52231;40.090;18.348;2023-12-22T06:31:37;26.30;;;11.32;;
65581;SDS011;52231;40.090;18.348;2023-12-22T06:34:05;24.00;;;9.68;;
65581;SDS011;52231;40.090;18.348;2023-12-22T06:36:33;24.05;;;9.70;;
65581;SDS011;52231;40.090;18.348;2023-12-22T06:39:01;26.95;;;9.38;;
65581;SDS011;52231;40.090;18.348;2023-12-22T06:41:30;26.10;;;8.90;;
65581;SDS011;52231;40.090;18.348;2023-12-22T06:43:58;21.80;;;8.70;;
65581;SDS011;52231;40.090;18.348;2023-12-22T06:46:29;24.40;;;8.32;;
65581;SDS011;52231;40.090;18.348;2023-12-22T06:48:58;17.98;;;7.53;;
65581;SDS011;52231;40.090;18.348;2023-12-22T06:51:27;20.60;;;7.50;;
65581;SDS011;52231;40.090;18.348;2023-12-22T06:53:59;21.30;;;7.47;;
65581;SDS011;52231;40.090;18.348;2023-12-22T06:56:31;23.30;;;8.20;;
65581;SDS011;52231;40.090;18.348;2023-12-22T06:59:01;22.17;;;7.82;;
65581;SDS011;52231;40.090;18.348;2023-12-22T07:01:30;24.00;;;7.60;;
65581;SDS011;52231;40.090;18.348;2023-12-22T07:03:59;21.65;;;8.85;;
65581;SDS011;52231;40.090;18.348;2023-12-22T07:06:29;31.50;;;10.50;;
65581;SDS011;52231;40.090;18.348;2023-12-22T07:11:39;27.23;;;9.40;;
65581;SDS011;52231;40.090;18.348;2023-12-22T07:14:12;25.08;;;9.13;;
65581;SDS011;52231;40.090;18.348;2023-12-22T07:16:40;19.05;;;8.52;;
65581;SDS011;52231;40.090;18.348;2023-12-22T07:19:09;22.00;;;8.35;;
65581;SDS011;52231;40.090;18.348;2023-12-22T07:21:40;24.67;;;9.57;;
65581;SDS011;52231;40.090;18.348;2023-12-22T07:24:28;26.63;;;9.63;;
65581;SDS011;52231;40.090;18.348;2023-12-22T07:26:56;25.10;;;10.63;;
65581;SDS011;52231;40.090;18.348;2023-12-22T07:29:25;25.08;;;11.07;;
65581;SDS011;52231;40.090;18.348;2023-12-22T07:31:53;28.85;;;11.15;;
65581;SDS011;52231;40.090;18.348;2023-12-22T07:34:21;24.10;;;10.70;;
65581;SDS011;52231;40.090;18.348;2023-12-22T07:36:50;29.92;;;11.13;;
65581;SDS011;52231;40.090;18.348;2023-12-22T07:39:21;31.73;;;10.45;;
65581;SDS011;52231;40.090;18.348;2023-12-22T07:41:49;27.88;;;9.25;;
65581;SDS011;52231;40.090;18.348;2023-12-22T07:44:18;21.38;;;8.38;;
65581;SDS011;52231;40.090;18.348;2023-12-22T07:46:55;22.77;;;7.50;;
65581;SDS011;52231;40.090;18.348;2023-12-22T07:49:26;24.75;;;8.80;;
65581;SDS011;52231;40.090;18.348;2023-12-22T07:51:54;28.52;;;10.48;;
65581;SDS011;52231;40.090;18.348;2023-12-22T07:54:22;24.13;;;9.73;;
65581;SDS011;52231;40.090;18.348;2023-12-22T07:56:51;30.20;;;8.20;;
65581;SDS011;52231;40.090;18.348;2023-12-22T07:59:20;16.73;;;6.47;;
65581;SDS011;52231;40.090;18.348;2023-12-22T08:01:48;25.00;;;6.68;;
65581;SDS011;52231;40.090;18.348;2023-12-22T08:04:16;20.40;;;6.32;;
65581;SDS011;52231;40.090;18.348;2023-12-22T08:06:44;21.45;;;7.40;;
65581;SDS011;52231;40.090;18.348;2023-12-22T08:09:14;23.20;;;6.93;;
65581;SDS011;52231;40.090;18.348;2023-12-22T08:11:42;23.92;;;6.65;;
65581;SDS011;52231;40.090;18.348;2023-12-22T08:14:16;21.25;;;7.35;;
65581;SDS011;52231;40.090;18.348;2023-12-22T08:16:45;24.30;;;7.78;;
65581;SDS011;52231;40.090;18.348;2023-12-22T08:19:13;23.08;;;6.72;;
65581;SDS011;52231;40.090;18.348;2023-12-22T08:21:44;26.95;;;6.55;;
65581;SDS011;52231;40.090;18.348;2023-12-22T08:24:13;19.27;;;6.15;;
65581;SDS011;52231;40.090;18.348;2023-12-22T08:26:42;18.75;;;6.68;;
65581;SDS011;52231;40.090;18.348;2023-12-22T08:29:10;15.80;;;5.10;;
65581;SDS011;52231;40.090;18.348;2023-12-22T08:31:38;23.48;;;4.65;;
65581;SDS011;52231;40.090;18.348;2023-12-22T08:34:06;19.77;;;3.72;;
65581;SDS011;52231;40.090;18.348;2023-12-22T08:36:35;14.35;;;3.40;;
65581;SDS011;52231;40.090;18.348;2023-12-22T08:39:03;16.33;;;3.55;;
65581;SDS011;52231;40.090;18.348;2023-12-22T08:41:32;18.38;;;4.30;;
65581;SDS011;52231;40.090;18.348;2023-12-22T08:44:04;16.85;;;3.80;;
65581;SDS011;52231;40.090;18.348;2023-12-22T08:46:33;17.38;;;3.45;;
65581;SDS011;52231;40.090;18.348;2023-12-22T08:49:01;20.38;;;3.20;;
65581;SDS011;52231;40.090;18.348;2023-12-22T08:51:30;14.05;;;3.03;;
65581;SDS011;52231;40.090;18.348;2023-12-22T08:53:58;15.45;;;4.38;;
65581;SDS011;52231;40.090;18.348;2023-12-22T08:56:27;17.85;;;4.70;;
65581;SDS011;52231;40.090;18.348;2023-12-22T08:58:55;18.25;;;3.20;;
65581;SDS011;52231;40.090;18.348;2023-12-22T09:01:26;23.73;;;4.55;;
65581;SDS011;52231;40.090;18.348;2023-12-22T09:03:54;14.40;;;3.00;;
65581;SDS011;52231;40.090;18.348;2023-12-22T09:06:23;13.98;;;3.17;;
65581;SDS011;52231;40.090;18.348;2023-12-22T09:08:52;21.92;;;5.97;;
65581;SDS011;52231;40.090;18.348;2023-12-22T09:11:21;14.30;;;3.40;;
65581;SDS011;52231;40.090;18.348;2023-12-22T09:13:49;13.55;;;3.92;;
65581;SDS011;52231;40.090;18.348;2023-12-22T09:16:21;16.60;;;3.30;;
65581;SDS011;52231;40.090;18.348;2023-12-22T09:18:50;17.08;;;3.90;;
65581;SDS011;52231;40.090;18.348;2023-12-22T09:21:19;16.25;;;3.05;;
65581;SDS011;52231;40.090;18.348;2023-12-22T09:23:47;17.40;;;4.50;;
65581;SDS011;52231;40.090;18.348;2023-12-22T09:26:17;16.40;;;3.22;;
65581;SDS011;52231;40.090;18.348;2023-12-22T09:28:46;17.67;;;3.75;;
65581;SDS011;52231;40.090;18.348;2023-12-22T09:33:42;11.00;;;3.05;;
65581;SDS011;52231;40.090;18.348;2023-12-22T09:38:39;10.20;;;2.38;;
65581;SDS011;52231;40.090;18.348;2023-12-22T09:41:10;14.27;;;3.50;;
65581;SDS011;52231;40.090;18.348;2023-12-22T09:43:39;11.65;;;2.83;;
65581;SDS011;52231;40.090;18.348;2023-12-22T09:46:08;15.23;;;2.45;;
65581;SDS011;52231;40.090;18.348;2023-12-22T09:48:37;9.93;;;2.25;;
65581;SDS011;52231;40.090;18.348;2023-12-22T09:51:07;13.43;;;2.20;;
65581;SDS011;52231;40.090;18.348;2023-12-22T09:53:37;9.85;;;2.38;;
65581;SDS011;52231;40.090;18.348;2023-12-22T09:56:07;12.77;;;2.30;;
65581;SDS011;52231;40.090;18.348;2023-12-22T09:58:35;10.13;;;2.65;;
65581;SDS011;52231;40.090;18.348;2023-12-22T10:01:05;9.43;;;2.05;;
65581;SDS011;52231;40.090;18.348;2023-12-22T10:03:35;11.48;;;3.90;;
65581;SDS011;52231;40.090;18.348;2023-12-22T10:06:24;17.40;;;3.40;;
65581;SDS011;52231;40.090;18.348;2023-12-22T10:08:52;9.75;;;2.90;;
65581;SDS011;52231;40.090;18.348;2023-12-22T10:11:21;13.60;;;2.50;;
65581;SDS011;52231;40.090;18.348;2023-12-22T10:16:51;17.52;;;5.13;;
65581;SDS011;52231;40.090;18.348;2023-12-22T10:19:20;9.85;;;2.92;;
65581;SDS011;52231;40.090;18.348;2023-12-22T10:21:49;8.15;;;2.03;;
65581;SDS011;52231;40.090;18.348;2023-12-22T10:27:10;10.35;;;2.83;;
65581;SDS011;52231;40.090;18.348;2023-12-22T10:29:39;9.20;;;1.85;;
65581;SDS011;52231;40.090;18.348;2023-12-22T10:32:07;10.43;;;2.70;;
65581;SDS011;52231;40.090;18.348;2023-12-22T10:34:40;11.80;;;2.80;;
65581;SDS011;52231;40.090;18.348;2023-12-22T10:37:09;8.50;;;2.55;;
65581;SDS011;52231;40.090;18.348;2023-12-22T10:39:40;7.50;;;2.53;;
65581;SDS011;52231;40.090;18.348;2023-12-22T10:42:09;11.52;;;2.58;;
65581;SDS011;52231;40.090;18.348;2023-12-22T10:47:07;9.52;;;2.40;;
65581;SDS011;52231;40.090;18.348;2023-12-22T10:49:36;8.70;;;2.40;;
65581;SDS011;52231;40.090;18.348;2023-12-22T10:54:32;11.95;;;3.10;;
65581;SDS011;52231;40.090;18.348;2023-12-22T10:57:03;10.35;;;2.88;;
65581;SDS011;52231;40.090;18.348;2023-12-22T10:59:31;14.88;;;4.30;;
65581;SDS011;52231;40.090;18.348;2023-12-22T11:02:04;12.75;;;2.65;;
65581;SDS011;52231;40.090;18.348;2023-12-22T11:04:38;8.60;;;2.30;;
65581;SDS011;52231;40.090;18.348;2023-12-22T11:07:06;14.25;;;2.83;;
65581;SDS011;52231;40.090;18.348;2023-12-22T11:09:36;14.10;;;3.13;;
65581;SDS011;52231;40.090;18.348;2023-12-22T11:12:06;14.68;;;3.00;;
65581;SDS011;52231;40.090;18.348;2023-12-22T11:14:35;9.63;;;3.17;;
65581;SDS011;52231;40.090;18.348;2023-12-22T11:17:05;11.40;;;3.28;;
65581;SDS011;52231;40.090;18.348;2023-12-22T11:19:38;13.32;;;3.55;;
65581;SDS011;52231;40.090;18.348;2023-12-22T11:22:07;16.38;;;4.22;;
65581;SDS011;52231;40.090;18.348;2023-12-22T11:24:37;16.15;;;4.95;;
65581;SDS011;52231;40.090;18.348;2023-12-22T11:27:07;11.98;;;3.40;;
65581;SDS011;52231;40.090;18.348;2023-12-22T11:29:37;11.50;;;2.90;;
65581;SDS011;52231;40.090;18.348;2023-12-22T11:32:07;11.48;;;2.70;;
65581;SDS011;52231;40.090;18.348;2023-12-22T11:34:38;8.90;;;2.00;;
65581;SDS011;52231;40.090;18.348;2023-12-22T11:37:09;11.90;;;4.65;;
65581;SDS011;52231;40.090;18.348;2023-12-22T11:39:41;10.23;;;2.13;;
65581;SDS011;52231;40.090;18.348;2023-12-22T11:42:14;17.23;;;3.45;;
65581;SDS011;52231;40.090;18.348;2023-12-22T11:47:15;10.48;;;2.00;;
65581;SDS011;52231;40.090;18.348;2023-12-22T11:49:44;14.90;;;3.22;;
65581;SDS011;52231;40.090;18.348;2023-12-22T11:52:13;12.75;;;2.65;;
65581;SDS011;52231;40.090;18.348;2023-12-22T11:54:47;15.40;;;4.80;;
65581;SDS011;52231;40.090;18.348;2023-12-22T11:59:56;10.55;;;2.78;;
65581;SDS011;52231;40.090;18.348;2023-12-22T12:02:41;9.90;;;3.00;;
65581;SDS011;52231;40.090;18.348;2023-12-22T12:05:09;10.32;;;2.83;;
65581;SDS011;52231;40.090;18.348;2023-12-22T12:08:06;17.13;;;2.95;;
65581;SDS011;52231;40.090;18.348;2023-12-22T12:13:18;10.23;;;2.50;;
65581;SDS011;52231;40.090;18.348;2023-12-22T12:15:55;11.48;;;3.25;;
65581;SDS011;52231;40.090;18.348;2023-12-22T12:18:29;12.68;;;2.88;;
65581;SDS011;52231;40.090;18.348;2023-12-22T12:21:02;9.38;;;2.30;;
65581;SDS011;52231;40.090;18.348;2023-12-22T12:25:58;11.85;;;3.20;;
65581;SDS011;52231;40.090;18.348;2023-12-22T12:31:05;10.18;;;3.10;;
65581;SDS011;52231;40.090;18.348;2023-12-22T12:33:37;12.80;;;4.03;;
65581;SDS011;52231;40.090;18.348;2023-12-22T12:36:25;8.88;;;2.97;;
65581;SDS011;52231;40.090;18.348;2023-12-22T12:39:14;13.85;;;3.33;;
65581;SDS011;52231;40.090;18.348;2023-12-22T12:41:47;11.20;;;2.60;;
65581;SDS011;52231;40.090;18.348;2023-12-22T12:44:21;10.25;;;1.98;;
65581;SDS011;52231;40.090;18.348;2023-12-22T12:46:51;12.93;;;2.92;;
65581;SDS011;52231;40.090;18.348;2023-12-22T12:49:19;13.00;;;2.80;;
65581;SDS011;52231;40.090;18.348;2023-12-22T12:51:48;11.80;;;2.67;;
65581;SDS011;52231;40.090;18.348;2023-12-22T12:54:16;10.38;;;2.50;;
65581;SDS011;52231;40.090;18.348;2023-12-22T12:56:46;13.93;;;3.28;;
65581;SDS011;52231;40.090;18.348;2023-12-22T12:59:15;12.35;;;3.03;;
65581;SDS011;52231;40.090;18.348;2023-12-22T13:01:46;9.68;;;3.10;;
65581;SDS011;52231;40.090;18.348;2023-12-22T13:04:15;11.23;;;3.20;;
65581;SDS011;52231;40.090;18.348;2023-12-22T13:06:50;12.10;;;3.40;;
65581;SDS011;52231;40.090;18.348;2023-12-22T13:09:20;14.07;;;3.00;;
65581;SDS011;52231;40.090;18.348;2023-12-22T13:14:23;13.85;;;2.67;;
65581;SDS011;52231;40.090;18.348;2023-12-22T13:16:55;17.90;;;3.72;;
65581;SDS011;52231;40.090;18.348;2023-12-22T13:19:25;11.32;;;3.53;;
65581;SDS011;52231;40.090;18.348;2023-12-22T13:21:54;14.43;;;3.20;;
65581;SDS011;52231;40.090;18.348;2023-12-22T13:24:22;10.45;;;2.75;;
65581;SDS011;52231;40.090;18.348;2023-12-22T13:27:02;14.60;;;3.13;;
65581;SDS011;52231;40.090;18.348;2023-12-22T13:29:46;14.23;;;3.03;;
65581;SDS011;52231;40.090;18.348;2023-12-22T13:32:16;21.83;;;8.95;;
65581;SDS011;52231;40.090;18.348;2023-12-22T13:34:52;14.40;;;5.15;;
65581;SDS011;52231;40.090;18.348;2023-12-22T13:37:22;14.73;;;5.75;;
65581;SDS011;52231;40.090;18.348;2023-12-22T13:39:54;16.67;;;4.85;;
65581;SDS011;52231;40.090;18.348;2023-12-22T13:42:22;11.93;;;4.72;;
65581;SDS011;52231;40.090;18.348;2023-12-22T13:44:52;8.60;;;2.50;;
65581;SDS011;52231;40.090;18.348;2023-12-22T13:47:22;13.52;;;4.20;;
65581;SDS011;52231;40.090;18.348;2023-12-22T13:49:52;10.25;;;3.20;;
65581;SDS011;52231;40.090;18.348;2023-12-22T13:52:29;11.90;;;3.60;;
65581;SDS011;52231;40.090;18.348;2023-12-22T13:55:14;13.93;;;3.60;;
65581;SDS011;52231;40.090;18.348;2023-12-22T13:57:43;11.35;;;3.35;;
65581;SDS011;52231;40.090;18.348;2023-12-22T14:05:18;11.68;;;3.40;;
65581;SDS011;52231;40.090;18.348;2023-12-22T14:07:47;10.95;;;3.33;;
65581;SDS011;52231;40.090;18.348;2023-12-22T14:10:16;14.65;;;3.72;;
65581;SDS011;52231;40.090;18.348;2023-12-22T14:12:44;13.07;;;3.15;;
65581;SDS011;52231;40.090;18.348;2023-12-22T14:15:13;14.90;;;3.88;;
65581;SDS011;52231;40.090;18.348;2023-12-22T14:17:42;10.73;;;2.30;;
65581;SDS011;52231;40.090;18.348;2023-12-22T14:20:10;14.52;;;3.33;;
65581;SDS011;52231;40.090;18.348;2023-12-22T14:22:39;17.30;;;3.33;;
65581;SDS011;52231;40.090;18.348;2023-12-22T14:25:07;13.02;;;3.42;;
65581;SDS011;52231;40.090;18.348;2023-12-22T14:27:36;14.82;;;5.38;;
65581;SDS011;52231;40.090;18.348;2023-12-22T14:30:04;21.15;;;7.38;;
65581;SDS011;52231;40.090;18.348;2023-12-22T14:32:33;17.80;;;3.10;;
65581;SDS011;52231;40.090;18.348;2023-12-22T14:35:01;17.05;;;4.03;;
65581;SDS011;52231;40.090;18.348;2023-12-22T14:37:31;16.98;;;4.65;;
65581;SDS011;52231;40.090;18.348;2023-12-22T14:39:59;17.17;;;4.53;;
65581;SDS011;52231;40.090;18.348;2023-12-22T14:42:27;14.25;;;4.40;;
65581;SDS011;52231;40.090;18.348;2023-12-22T14:44:55;16.02;;;3.92;;
65581;SDS011;52231;40.090;18.348;2023-12-22T14:47:24;13.25;;;4.35;;
65581;SDS011;52231;40.090;18.348;2023-12-22T14:49:52;15.95;;;3.97;;
65581;SDS011;52231;40.090;18.348;2023-12-22T14:52:20;14.65;;;4.28;;
65581;SDS011;52231;40.090;18.348;2023-12-22T14:54:54;14.32;;;6.00;;
65581;SDS011;52231;40.090;18.348;2023-12-22T14:57:22;15.98;;;5.18;;
65581;SDS011;52231;40.090;18.348;2023-12-22T14:59:51;16.27;;;6.18;;
65581;SDS011;52231;40.090;18.348;2023-12-22T15:02:19;22.08;;;6.90;;
65581;SDS011;52231;40.090;18.348;2023-12-22T15:04:47;15.55;;;5.90;;
65581;SDS011;52231;40.090;18.348;2023-12-22T15:07:17;18.40;;;6.38;;
65581;SDS011;52231;40.090;18.348;2023-12-22T15:09:46;18.95;;;6.97;;
65581;SDS011;52231;40.090;18.348;2023-12-22T15:12:17;16.10;;;6.63;;
65581;SDS011;52231;40.090;18.348;2023-12-22T15:14:46;24.15;;;9.90;;
65581;SDS011;52231;40.090;18.348;2023-12-22T15:20:02;26.23;;;9.65;;